Terminal Aerodrome Forecast
Issued by NWS Charleston, WV

Current Version | Previous Version | Graphics & Text | Print | Product List | Glossary On
Versions: 1 2 3 4 5 6 7 8 9 10 11 12 13 14 15 16 17 18 19 20 21 22 23 24 25
000
FTUS41 KRLX 271100
TAFBKW
TAF
KBKW 271127Z 2712/2812 22005KT P6SM SCT008 BKN015
      TEMPO 2712/2713 -SHRA BKN008
     FM271300 22008KT P6SM BKN025
     FM271500 23010KT P6SM VCTS SCT040CB BKN100
     FM271900 24012G20KT 4SM +TSRA BKN035CB
     FM280000 26009KT P6SM BKN040
     FM280800 28006KT P6SM BKN025=

USA.gov is the U.S. government's official web portal to all federal, state and local government web resources and services.